Time;durP1;ratioP1;P1;durP2;ratioP2;P2;SDS_P1;SDS_P2;PMS_P1;PMS_P2;Temp;Humidity;BMP_temperature;BMP_pressure;BME280_temperature;BME280_humidity;BME280_pressure;Samples;Min_cycle;Max_cycle;Signal;HPM_P1;HPM_P2
2022/01/28 00:01:06;;;;;;;10.33;6.03;;;;;;;14.61;33.30;101541.47;4918348;29;20056;-70
2022/01/28 00:03:35;;;;;;;10.67;5.60;;;;;;;14.49;33.34;101540.03;4936977;28;20060;-70
2022/01/28 00:06:04;;;;;;;9.30;5.27;;;;;;;14.51;33.24;101537.84;4919992;29;20146;-71
2022/01/28 00:08:30;;;;;;;8.33;3.57;;;;;;;14.48;33.30;101535.56;4921651;29;20138;-70
2022/01/28 00:10:57;;;;;;;12.00;5.20;;;;;;;14.30;33.00;101509.72;4919877;29;20138;-71
2022/01/28 00:40:18;;;;;;;8.60;4.53;;;;;;;14.33;32.69;101533.63;4929475;29;20146;-78
2022/01/28 00:42:45;;;;;;;7.17;3.33;;;;;;;14.30;32.88;101542.59;4930873;29;20366;-80
2022/01/28 00:45:12;;;;;;;9.87;4.90;;;;;;;14.06;32.59;101514.22;4953852;28;20056;-79
2022/01/28 00:47:39;;;;;;;9.43;3.70;;;;;;;14.22;32.63;101543.97;4920767;29;20059;-80
2022/01/28 00:50:07;;;;;;;22.00;3.43;;;;;;;14.23;32.65;101540.06;4922815;29;20065;-80
2022/01/28 00:52:34;;;;;;;8.13;3.43;;;;;;;14.18;32.49;101546.50;4919915;29;20150;-80
2022/01/28 00:55:01;;;;;;;8.27;4.30;;;;;;;14.20;32.61;101535.84;4919822;29;20750;-80
2022/01/28 00:57:28;;;;;;;5.70;3.13;;;;;;;14.17;32.54;101530.78;4922589;29;20044;-81
2022/01/28 00:59:55;;;;;;;8.80;3.30;;;;;;;13.87;32.65;101491.47;4928062;29;20470;-77
2022/01/28 01:02:21;;;;;;;4.20;2.87;;;;;;;14.10;32.64;101535.00;4932059;29;20142;-77
2022/01/28 01:04:49;;;;;;;3.83;2.27;;;;;;;14.09;32.66;101528.56;4921192;29;20067;-76
2022/01/28 01:07:16;;;;;;;8.37;3.93;;;;;;;13.86;32.30;101490.63;4919110;29;20083;-75
2022/01/28 01:09:45;;;;;;;4.23;2.70;;;;;;;14.19;32.14;101533.34;4917937;29;20448;-76
2022/01/28 01:12:13;;;;;;;6.70;2.67;;;;;;;14.23;31.98;101532.47;4917832;29;20150;-73
2022/01/28 01:14:40;;;;;;;9.10;3.37;;;;;;;14.37;31.70;101529.94;4920302;29;20052;-74
2022/01/28 01:19:41;;;;;;;7.90;2.95;;;;;;;14.28;31.79;101536.41;4920433;29;20447;-75
2022/01/28 01:22:09;;;;;;;12.17;3.77;;;;;;;13.97;31.86;101486.69;4925688;29;20349;-77
2022/01/28 01:24:47;;;;;;;10.93;4.87;;;;;;;14.22;31.68;101519.56;4920361;29;20059;-77
2022/01/28 01:27:15;;;;;;;4.83;2.43;;;;;;;14.14;31.70;101494.00;4918833;29;20143;-79
2022/01/28 01:29:44;;;;;;;9.10;3.93;;;;;;;14.33;31.60;101528.00;4934374;29;20044;-78
2022/01/28 01:32:15;;;;;;;8.97;3.67;;;;;;;14.14;31.82;101517.31;4929766;29;20063;-71
2022/01/28 01:34:42;;;;;;;13.90;4.73;;;;;;;14.19;32.14;101541.75;4916228;29;20313;-73
2022/01/28 01:37:10;;;;;;;10.03;5.27;;;;;;;13.99;32.18;101520.97;4918804;29;20139;-73
2022/01/28 01:39:38;;;;;;;15.07;4.67;;;;;;;13.89;32.54;101514.50;4923956;29;20055;-73
2022/01/28 01:42:28;;;;;;;11.17;5.40;;;;;;;13.51;32.56;101469.81;4936010;29;20130;-73
2022/01/28 01:53:13;;;;;;;9.43;4.20;;;;;;;13.75;32.77;101545.94;4922656;29;20055;-74
2022/01/28 01:55:41;;;;;;;9.47;4.67;;;;;;;13.72;32.87;101542.84;4919081;29;20055;-72
2022/01/28 01:58:08;;;;;;;10.13;4.87;;;;;;;13.42;33.03;101512.72;4922392;29;20051;-78
2022/01/28 02:00:35;;;;;;;7.30;3.90;;;;;;;13.34;33.21;101514.13;4922924;29;20090;-74
2022/01/28 02:03:02;;;;;;;6.07;3.33;;;;;;;13.49;33.27;101553.44;4921751;29;20077;-74
2022/01/28 02:05:28;;;;;;;7.63;5.37;;;;;;;13.26;33.41;101531.47;4927633;29;20204;-78
2022/01/28 02:07:56;;;;;;;10.40;3.30;;;;;;;13.47;33.22;101550.06;4919342;29;20139;-78
2022/01/28 02:10:22;;;;;;;5.70;3.47;;;;;;;13.41;33.23;101548.34;4918601;29;20139;-79
2022/01/28 02:12:52;;;;;;;5.63;3.30;;;;;;;13.25;33.23;101529.78;4919295;29;20059;-77
2022/01/28 02:15:19;;;;;;;6.13;3.45;;;;;;;13.17;33.13;101505.88;4919668;29;20566;-80
2022/01/28 02:17:47;;;;;;;9.37;3.10;;;;;;;13.43;33.16;101543.28;4919297;29;20142;-77
2022/01/28 02:20:37;;;;;;;9.17;4.17;;;;;;;13.17;33.06;101505.88;4916649;29;20499;-77
2022/01/28 02:23:05;;;;;;;10.90;3.63;;;;;;;13.47;33.04;101555.69;4917716;29;20065;-79
2022/01/28 02:25:33;;;;;;;7.90;3.37;;;;;;;13.41;32.84;101558.75;4920676;29;20083;-79
2022/01/28 02:28:03;;;;;;;9.40;5.00;;;;;;;13.41;33.25;101550.31;4923539;29;20130;-79
2022/01/28 02:30:30;;;;;;;11.07;4.40;;;;;;;13.35;33.25;101552.25;4921346;29;20339;-80
2022/01/28 02:33:08;;;;;;;13.70;4.97;;;;;;;13.40;33.33;101555.09;4921535;29;20288;-83
2022/01/28 02:35:35;;;;;;;9.37;4.37;;;;;;;13.29;33.59;101550.53;4928107;29;20177;-77
2022/01/28 02:38:02;;;;;;;8.37;4.53;;;;;;;12.97;33.93;101543.09;4919500;29;20058;-79
2022/01/28 02:40:29;;;;;;;9.43;4.47;;;;;;;13.04;34.06;101562.47;4926850;29;20138;-78
2022/01/28 02:43:02;;;;;;;15.53;5.67;;;;;;;12.95;34.43;101572.50;4953172;28;20059;-76
2022/01/28 02:45:35;;;;;;;9.80;5.17;;;;;;;12.87;34.53;101573.88;4914371;29;20426;-76
2022/01/28 02:48:07;;;;;;;15.50;5.70;;;;;;;12.41;34.53;101497.06;4950941;28;20059;-74
2022/01/28 02:50:44;;;;;;;10.83;5.37;;;;;;;12.57;34.74;101544.53;4923629;29;20423;-74
2022/01/28 02:53:21;;;;;;;9.07;4.90;;;;;;;12.66;34.70;101572.91;4922445;29;20051;-73
2022/01/28 02:55:48;;;;;;;11.20;5.87;;;;;;;12.74;34.74;101583.59;4920005;29;20058;-72
2022/01/28 02:58:21;;;;;;;11.53;5.20;;;;;;;12.67;34.77;101582.16;4917565;29;20078;-73
2022/01/28 03:00:49;;;;;;;13.23;6.20;;;;;;;12.44;34.86;101544.97;4916986;29;20051;-73
2022/01/28 03:03:18;;;;;;;8.07;5.00;;;;;;;12.56;34.78;101578.44;4916788;29;20519;-73
2022/01/28 03:05:46;;;;;;;10.02;4.60;;;;;;;12.61;34.66;101584.06;4917937;29;20055;-74
2022/01/28 03:08:14;;;;;;;10.43;4.70;;;;;;;12.49;34.79;101550.63;4918923;29;20040;-73
2022/01/28 03:10:47;;;;;;;6.77;4.27;;;;;;;12.68;34.54;101572.63;4920732;29;20066;-73
2022/01/28 03:15:46;;;;;;;9.87;4.37;;;;;;;12.58;34.54;101573.41;4918760;29;20060;-74
2022/01/28 03:18:20;;;;;;;11.03;4.83;;;;;;;12.60;34.36;101570.34;4916836;29;20058;-75
2022/01/28 03:23:20;;;;;;;9.80;4.07;;;;;;;12.61;34.22;101549.59;4916371;29;20051;-74
2022/01/28 03:25:48;;;;;;;7.87;4.20;;;;;;;12.61;34.09;101552.41;4918187;29;20048;-78
2022/01/28 03:28:19;;;;;;;4.80;2.80;;;;;;;12.86;33.75;101571.34;4922271;29;20052;-78
2022/01/28 03:30:45;;;;;;;6.27;2.50;;;;;;;12.67;33.63;101538.16;4921045;29;20143;-77
2022/01/28 03:33:12;;;;;;;7.80;4.07;;;;;;;12.70;33.66;101562.00;4918745;29;20047;-75
2022/01/28 03:35:39;;;;;;;7.93;3.90;;;;;;;12.63;33.42;101572.59;4916251;29;20154;-75
2022/01/28 03:38:11;;;;;;;4.80;2.80;;;;;;;12.50;33.71;101571.94;4919318;29;20536;-75
2022/01/28 03:40:39;;;;;;;6.60;3.57;;;;;;;12.45;33.68;101566.31;4920180;29;20051;-78
2022/01/28 03:43:06;;;;;;;3.87;2.33;;;;;;;12.47;33.36;101558.47;4918570;29;20415;-80
2022/01/28 03:45:34;;;;;;;10.10;3.20;;;;;;;12.03;33.34;101501.81;4918903;29;20059;-81
2022/01/28 03:48:01;;;;;;;7.60;2.70;;;;;;;12.37;33.41;101558.38;4918861;29;20058;-80
2022/01/28 03:50:32;;;;;;;9.07;3.30;;;;;;;12.36;33.52;101544.66;4917204;29;20134;-79
2022/01/28 03:53:02;;;;;;;2.97;1.37;;;;;;;12.48;33.27;101562.13;4928455;29;20055;-73
2022/01/28 03:55:30;;;;;;;2.97;1.67;;;;;;;12.49;33.28;101556.25;4934222;29;20566;-74
2022/01/28 03:57:57;;;;;;;6.03;1.77;;;;;;;12.44;33.25;101559.00;4933839;29;20287;-74
2022/01/28 04:00:27;;;;;;;1.97;1.60;;;;;;;12.27;33.63;101564.78;4959970;28;20054;-71
2022/01/28 04:03:04;;;;;;;;;;;;;;;12.03;33.82;101564.28;4924479;29;20178;-70
2022/01/28 04:13:46;;;;;;;2.10;1.40;;;;;;;11.87;33.64;101556.84;4925327;29;20170;-74
2022/01/28 04:18:49;;;;;;;4.17;2.23;;;;;;;11.84;33.51;101534.97;4920121;29;20063;-72
2022/01/28 04:21:16;;;;;;;0.70;0.70;;;;;;;12.06;32.84;101548.88;4926047;29;20055;-78
2022/01/28 04:23:43;;;;;;;11.50;3.60;;;;;;;12.26;32.91;101568.66;4951078;28;20690;-78
2022/01/28 04:26:15;;;;;;;2.63;1.90;;;;;;;12.08;32.77;101550.31;4920272;29;20051;-78
2022/01/28 04:28:42;;;;;;;2.80;1.60;;;;;;;12.26;32.29;101579.03;4922174;29;20139;-77
2022/01/28 04:31:09;;;;;;;1.53;1.13;;;;;;;11.85;32.37;101497.47;4919888;29;20055;-76
2022/01/28 04:33:36;;;;;;;4.30;1.83;;;;;;;12.16;32.16;101551.78;4919642;29;21202;-76
2022/01/28 04:36:05;;;;;;;3.73;1.50;;;;;;;12.39;31.90;101564.56;4923163;29;20074;-74
2022/01/28 04:38:44;;;;;;;2.37;1.07;;;;;;;12.41;31.81;101564.28;4921749;29;20048;-76
2022/01/28 04:41:25;;;;;;;2.73;1.87;;;;;;;12.29;31.63;101545.72;4916210;29;20077;-74
2022/01/28 04:44:00;;;;;;;3.40;1.77;;;;;;;12.56;31.34;101564.41;4924302;29;20060;-79
2022/01/28 04:49:10;;;;;;;4.77;2.47;;;;;;;12.39;31.49;101572.97;4922711;29;21375;-80
2022/01/28 05:00:03;;;;;;;3.17;1.67;;;;;;;12.39;31.40;101578.59;4930089;29;20055;-76
2022/01/28 05:26:22;;;;;;;6.90;2.37;;;;;;;12.12;32.16;101608.59;4930708;29;20102;-79
2022/01/28 05:28:48;;;;;;;3.90;2.40;;;;;;;12.03;31.98;101608.19;4926648;29;20054;-81
2022/01/28 05:31:16;;;;;;;4.17;2.27;;;;;;;11.93;32.05;101583.78;4920812;29;20174;-75
2022/01/28 05:33:44;;;;;;;5.77;2.30;;;;;;;11.99;31.97;101593.06;4920493;29;20060;-74
2022/01/28 05:36:11;;;;;;;5.80;2.00;;;;;;;11.97;32.12;101610.13;4918939;29;20093;-69
2022/01/28 05:38:39;;;;;;;6.13;2.13;;;;;;;11.85;32.03;101607.47;4921691;29;20059;-68
2022/01/28 05:41:05;;;;;;;4.70;2.00;;;;;;;11.87;32.12;101617.56;4944642;29;20087;-78
2022/01/28 05:43:32;;;;;;;1.40;0.93;;;;;;;11.72;32.08;101584.63;4939572;29;21126;-76
2022/01/28 05:45:59;;;;;;;3.10;1.97;;;;;;;11.90;31.97;101612.28;4941330;29;20116;-76
2022/01/28 05:48:26;;;;;;;5.10;2.40;;;;;;;11.92;31.82;101610.06;4938992;29;20055;-76
2022/01/28 05:50:55;;;;;;;4.00;2.10;;;;;;;11.87;31.80;101604.41;4938221;29;20174;-77
2022/01/28 05:53:22;;;;;;;3.10;1.70;;;;;;;11.75;31.96;101581.28;4932680;29;20095;-75
2022/01/28 05:55:49;;;;;;;3.53;2.07;;;;;;;11.85;31.86;101607.47;4931445;29;20138;-74
2022/01/28 05:58:16;;;;;;;4.93;2.30;;;;;;;11.95;31.52;101609.53;4924668;29;20060;-75
2022/01/28 06:00:43;;;;;;;3.53;1.73;;;;;;;11.98;31.47;101605.38;4944739;29;20083;-75
2022/01/28 06:03:10;;;;;;;4.07;2.27;;;;;;;12.00;31.31;101611.53;4937832;29;20135;-73
2022/01/28 06:05:38;;;;;;;5.27;2.30;;;;;;;11.91;31.37;101587.94;4934116;29;20598;-72
2022/01/28 06:08:04;;;;;;;4.63;2.50;;;;;;;12.04;31.16;101593.97;4933241;29;20135;-73
2022/01/28 06:10:31;;;;;;;4.50;2.67;;;;;;;12.23;31.06;101610.34;4921616;29;20055;-74
2022/01/28 06:12:58;;;;;;;4.43;2.00;;;;;;;12.21;31.07;101623.81;4933080;29;20051;-74
2022/01/28 06:15:25;;;;;;;5.43;1.90;;;;;;;12.13;31.25;101610.25;4933439;29;20087;-74
2022/01/28 06:17:52;;;;;;;4.73;2.13;;;;;;;12.21;31.01;101618.19;4927990;29;20060;-75
2022/01/28 06:20:19;;;;;;;4.57;2.37;;;;;;;12.27;31.06;101626.38;4921933;29;20061;-72
2022/01/28 06:22:47;;;;;;;6.60;1.97;;;;;;;12.12;30.87;101592.63;4918383;29;20146;-75
2022/01/28 06:25:15;;;;;;;4.83;1.97;;;;;;;12.21;31.07;101613.44;4935741;28;20150;-74
2022/01/28 06:27:43;;;;;;;3.93;2.30;;;;;;;12.16;30.93;101624.56;4935153;29;20079;-74
2022/01/28 06:30:10;;;;;;;5.67;1.93;;;;;;;12.13;30.96;101625.09;4928543;29;20052;-73
2022/01/28 06:32:37;;;;;;;3.17;2.07;;;;;;;12.14;30.94;101626.81;4933422;29;20047;-78
2022/01/28 06:35:08;;;;;;;7.20;2.33;;;;;;;12.22;31.06;101617.94;4944935;29;20142;-76
2022/01/28 06:37:37;;;;;;;3.83;2.03;;;;;;;11.94;31.08;101582.66;4956888;28;20054;-77
2022/01/28 06:40:15;;;;;;;4.90;2.40;;;;;;;11.83;31.06;101583.66;4941417;29;20095;-66
2022/01/28 06:42:43;;;;;;;4.70;2.20;;;;;;;12.20;30.91;101617.34;4949827;29;20031;-78
2022/01/28 06:45:10;;;;;;;4.63;1.83;;;;;;;11.73;31.05;101544.34;4943624;29;20083;-70
2022/01/28 06:47:37;;;;;;;3.23;1.93;;;;;;;12.13;30.96;101621.47;4945020;29;20084;-72
2022/01/28 06:50:06;;;;;;;4.27;2.33;;;;;;;12.03;30.83;101625.88;4946464;29;20132;-68
2022/01/28 06:52:34;;;;;;;4.37;1.77;;;;;;;11.96;30.79;101629.97;4945489;29;20055;-68
2022/01/28 06:55:01;;;;;;;4.33;2.10;;;;;;;11.96;30.74;101630.81;4930685;29;20061;-68
2022/01/28 06:57:29;;;;;;;3.73;2.13;;;;;;;11.92;31.00;101626.84;4937737;28;20114;-67
2022/01/28 06:59:57;;;;;;;3.47;2.10;;;;;;;11.89;30.55;101634.94;4936906;29;20051;-67
2022/01/28 07:02:24;;;;;;;3.23;1.70;;;;;;;11.97;30.52;101632.53;4932386;29;20055;-66
2022/01/28 07:04:51;;;;;;;3.73;2.23;;;;;;;12.00;30.70;101629.19;4925856;29;20507;-66
2022/01/28 07:07:22;;;;;;;4.87;2.60;;;;;;;12.04;30.65;101627.56;4941984;29;20048;-67
2022/01/28 07:09:49;;;;;;;2.83;1.67;;;;;;;12.00;30.53;101626.41;4939592;29;20075;-67
2022/01/28 07:12:16;;;;;;;4.37;1.90;;;;;;;12.02;30.54;101629.75;4932646;29;20058;-67
2022/01/28 07:14:43;;;;;;;3.77;2.10;;;;;;;12.06;30.41;101642.13;4919817;29;20047;-67
2022/01/28 07:17:10;;;;;;;3.33;2.13;;;;;;;12.08;30.11;101639.91;4917109;29;20077;-68
2022/01/28 07:19:37;;;;;;;3.63;1.97;;;;;;;12.04;30.21;101618.31;4920779;29;20052;-67
2022/01/28 07:22:05;;;;;;;6.67;2.30;;;;;;;12.22;30.05;101656.28;4928185;28;20070;-68
2022/01/28 07:24:32;;;;;;;5.97;2.40;;;;;;;12.23;30.17;101644.81;4922193;29;20146;-67
2022/01/28 07:26:59;;;;;;;6.20;2.53;;;;;;;12.32;29.93;101662.00;4919390;29;20143;-68
2022/01/28 07:29:29;;;;;;;5.00;2.13;;;;;;;12.18;30.08;101638.34;4917741;29;20169;-69
2022/01/28 07:31:56;;;;;;;7.43;2.13;;;;;;;12.20;30.35;101652.91;4920604;29;20051;-69
2022/01/28 07:34:24;;;;;;;3.87;2.20;;;;;;;12.09;30.17;101652.78;4922326;29;20052;-69
2022/01/28 07:36:51;;;;;;;5.90;2.10;;;;;;;12.05;30.33;101657.22;4922296;29;20517;-68
2022/01/28 07:39:18;;;;;;;6.67;2.53;;;;;;;12.03;30.29;101673.47;4921966;29;20071;-69
2022/01/28 07:41:45;;;;;;;4.30;2.13;;;;;;;12.14;30.36;101671.63;4924407;29;20138;-68
2022/01/28 07:44:12;;;;;;;4.80;2.17;;;;;;;12.14;30.45;101676.38;4921424;29;20079;-67
2022/01/28 07:46:39;;;;;;;8.87;2.73;;;;;;;12.14;30.46;101681.97;4919711;29;20404;-69
2022/01/28 07:49:06;;;;;;;6.00;2.60;;;;;;;12.12;30.66;101689.78;4923267;29;20051;-69
2022/01/28 07:51:35;;;;;;;3.70;2.27;;;;;;;12.05;30.21;101690.00;4919880;29;20047;-69
2022/01/28 07:54:04;;;;;;;4.90;2.47;;;;;;;11.96;30.65;101681.19;4924044;29;20060;-69
2022/01/28 07:56:31;;;;;;;4.53;2.17;;;;;;;11.82;30.63;101683.53;4922086;29;20150;-68
2022/01/28 07:58:58;;;;;;;5.93;2.53;;;;;;;11.74;30.89;101688.75;4926052;29;20058;-66
2022/01/28 08:01:25;;;;;;;3.23;1.93;;;;;;;11.60;31.04;101693.91;4927721;29;20502;-67
2022/01/28 08:03:52;;;;;;;4.17;1.90;;;;;;;11.51;31.06;101696.28;4936415;29;20474;-67
2022/01/28 08:06:19;;;;;;;2.27;1.67;;;;;;;11.30;30.97;101666.34;4936806;29;20146;-66
2022/01/28 08:08:46;;;;;;;5.90;1.77;;;;;;;11.51;31.18;101706.63;4937237;29;20083;-67
2022/01/28 08:11:13;;;;;;;4.27;2.00;;;;;;;11.70;30.99;101705.22;4929159;29;20098;-68
2022/01/28 08:13:40;;;;;;;4.63;1.90;;;;;;;11.97;30.74;101694.09;4927485;29;20732;-67
2022/01/28 08:16:07;;;;;;;3.73;2.17;;;;;;;12.50;30.35;101709.22;4954690;28;20051;-67
2022/01/28 08:18:33;;;;;;;4.33;2.30;;;;;;;12.92;29.70;101714.09;4925263;29;20044;-67
2022/01/28 08:21:00;;;;;;;6.10;3.53;;;;;;;13.42;29.85;101726.81;4924173;29;20438;-67
2022/01/28 08:23:27;;;;;;;6.10;2.90;;;;;;;13.93;29.58;101727.06;4928374;29;20154;-67
2022/01/28 08:25:55;;;;;;;11.20;4.70;;;;;;;14.33;29.22;101735.94;4927826;29;20083;-67
2022/01/28 08:28:22;;;;;;;6.13;2.60;;;;;;;14.72;28.90;101738.28;4934684;29;20058;-67
2022/01/28 08:30:49;;;;;;;9.43;2.83;;;;;;;15.11;28.70;101738.53;4923328;29;20066;-68
2022/01/28 08:33:16;;;;;;;4.27;2.53;;;;;;;15.43;28.33;101731.78;4926334;29;20087;-66
2022/01/28 08:35:50;;;;;;;5.47;2.80;;;;;;;15.60;28.37;101698.50;4918409;29;20055;-68
2022/01/28 08:38:24;;;;;;;10.80;3.90;;;;;;;16.29;28.00;101737.09;4918760;29;20066;-67
2022/01/28 08:40:53;;;;;;;9.97;3.63;;;;;;;16.68;27.59;101747.56;4919884;29;20511;-67
2022/01/28 08:43:20;;;;;;;10.63;4.90;;;;;;;17.08;27.71;101737.13;4922516;29;20059;-68
2022/01/28 08:45:47;;;;;;;13.30;4.67;;;;;;;17.50;27.70;101741.22;4920967;29;20043;-68
2022/01/28 08:48:14;;;;;;;10.40;4.50;;;;;;;17.91;27.07;101746.47;4920299;29;20147;-68
2022/01/28 08:50:42;;;;;;;13.53;5.63;;;;;;;18.17;27.07;101722.38;4923127;29;20078;-68
2022/01/28 08:53:10;;;;;;;10.55;5.68;;;;;;;18.69;27.09;101754.44;4922604;29;20059;-68
2022/01/28 08:55:38;;;;;;;11.07;3.60;;;;;;;19.04;25.64;101745.69;4924016;29;20051;-68
2022/01/28 08:58:09;;;;;;;7.85;3.20;;;;;;;19.40;25.48;101745.94;4922161;29;20058;-67
2022/01/28 09:00:36;;;;;;;5.60;2.40;;;;;;;19.76;24.70;101763.13;4915247;29;20059;-68
2022/01/28 09:03:04;;;;;;;3.50;2.10;;;;;;;19.81;23.21;101750.84;4920301;29;20062;-67
2022/01/28 09:05:33;;;;;;;5.40;2.92;;;;;;;19.43;23.63;101688.66;4917658;29;20562;-68
2022/01/28 09:08:06;;;;;;;2.97;2.20;;;;;;;19.78;22.92;101754.31;4913957;29;20060;-67
2022/01/28 09:10:36;;;;;;;5.15;2.97;;;;;;;19.68;21.86;101760.16;4926245;29;20075;-68
2022/01/28 09:15:37;;;;;;;5.85;3.17;;;;;;;20.12;22.60;101751.88;4917088;29;20090;-67
2022/01/28 09:18:05;;;;;;;6.82;3.90;;;;;;;20.31;22.44;101763.13;4916970;29;20059;-69
2022/01/28 09:20:34;;;;;;;6.75;3.83;;;;;;;20.16;22.09;101748.41;4921827;29;20061;-68
2022/01/28 09:23:01;;;;;;;8.35;4.60;;;;;;;19.98;21.71;101768.06;4917750;29;20517;-71
2022/01/28 09:25:30;;;;;;;6.55;3.65;;;;;;;19.83;21.91;101762.72;4926066;29;20078;-68
2022/01/28 09:27:57;;;;;;;9.90;4.65;;;;;;;19.72;21.72;101767.72;4917765;29;20051;-67
2022/01/28 09:30:24;;;;;;;6.13;3.17;;;;;;;19.98;21.86;101764.41;4920695;29;20054;-68
2022/01/28 09:32:52;;;;;;;6.40;3.70;;;;;;;20.12;21.53;101760.41;4926649;29;20459;-68
2022/01/28 09:35:20;;;;;;;8.50;3.33;;;;;;;19.87;20.41;101770.28;4930306;29;20130;-69
2022/01/28 09:37:47;;;;;;;3.50;2.13;;;;;;;20.16;20.46;101782.44;4917341;29;20058;-69
2022/01/28 09:40:14;;;;;;;4.43;2.70;;;;;;;20.18;20.73;101743.28;4918464;29;20138;-68
2022/01/28 09:42:44;;;;;;;5.47;3.08;;;;;;;20.69;20.85;101754.34;4915454;29;20057;-69
2022/01/28 09:45:16;;;;;;;4.65;2.75;;;;;;;21.55;20.73;101775.22;4918311;29;20087;-69
2022/01/28 09:47:46;;;;;;;2.78;1.90;;;;;;;21.81;18.85;101786.72;4962101;28;20083;-70
2022/01/28 09:50:14;;;;;;;;;;;;;;;21.65;19.72;101777.78;4917883;29;20156;-68
2022/01/28 09:52:40;;;;;;;7.50;2.78;;;;;;;22.17;18.56;101783.72;4918023;29;20312;-69
2022/01/28 09:55:08;;;;;;;2.40;2.10;;;;;;;22.33;18.33;101792.66;4931972;28;20058;-68
2022/01/28 09:57:34;;;;;;;4.45;2.17;;;;;;;22.29;17.99;101786.81;4914170;29;20103;-70
2022/01/28 10:00:06;;;;;;;3.80;2.50;;;;;;;22.13;18.23;101772.16;4916403;29;20044;-69
2022/01/28 10:02:52;;;;;;;4.90;2.33;;;;;;;22.05;17.69;101780.63;4929194;29;20052;-69
2022/01/28 10:05:28;;;;;;;6.43;2.63;;;;;;;22.48;18.18;101770.25;4930420;29;20060;-69
2022/01/28 10:08:16;;;;;;;3.95;2.00;;;;;;;22.14;17.50;101776.66;4931809;29;20106;-68
2022/01/28 10:11:08;;;;;;;3.35;2.10;;;;;;;21.94;17.98;101763.88;4928704;28;20044;-68
2022/01/28 10:13:47;;;;;;;2.88;1.70;;;;;;;22.35;17.51;101761.84;4913692;29;20051;-69
2022/01/28 10:16:15;;;;;;;2.42;1.88;;;;;;;22.03;17.92;101774.44;4918681;29;20047;-68
2022/01/28 10:19:05;;;;;;;3.60;2.60;;;;;;;21.80;17.46;101768.00;4953954;28;20056;-69
2022/01/28 10:21:32;;;;;;;;;;;;;;;21.05;17.64;101757.13;4917075;29;20078;-68
2022/01/28 10:24:19;;;;;;;2.20;1.73;;;;;;;20.85;17.16;101765.31;4919909;29;19933;-68
2022/01/28 10:26:50;;;;;;;4.50;2.10;;;;;;;21.01;17.40;101752.44;4926482;29;20090;-69
2022/01/28 10:29:17;;;;;;;9.43;2.88;;;;;;;21.45;17.48;101762.13;4931608;29;20087;-70
2022/01/28 10:31:51;;;;;;;2.92;1.90;;;;;;;21.47;17.45;101760.66;4928086;29;20419;-68
2022/01/28 10:34:26;;;;;;;2.42;2.22;;;;;;;21.06;17.37;101756.00;4916242;29;20055;-70
2022/01/28 10:37:24;;;;;;;1.70;1.58;;;;;;;21.31;17.63;101762.19;4914404;29;20138;-69
2022/01/28 10:40:01;;;;;;;2.65;2.33;;;;;;;20.90;16.74;101743.31;4929319;29;20588;-71
2022/01/28 10:42:52;;;;;;;3.53;2.42;;;;;;;20.78;17.23;101757.25;4926631;29;20117;-70
2022/01/28 10:45:22;;;;;;;4.15;2.95;;;;;;;21.06;17.28;101758.84;4917589;29;20467;-69
2022/01/28 10:47:56;;;;;;;2.65;2.00;;;;;;;20.82;17.19;101763.97;4916762;29;20085;-68
2022/01/28 10:50:25;;;;;;;4.22;2.35;;;;;;;21.06;17.17;101767.34;4921163;29;20073;-68
2022/01/28 10:53:06;;;;;;;3.17;2.30;;;;;;;20.86;16.95;101767.03;4919804;29;20430;-68
2022/01/28 10:55:36;;;;;;;3.10;1.88;;;;;;;20.80;17.38;101767.13;4914449;29;20681;-69
2022/01/28 10:58:09;;;;;;;4.18;2.58;;;;;;;21.01;17.39;101752.44;4919099;29;20122;-68
2022/01/28 11:00:42;;;;;;;3.30;2.22;;;;;;;21.51;17.10;101761.66;4924700;29;20470;-68
2022/01/28 11:03:12;;;;;;;4.43;2.90;;;;;;;21.56;16.78;101760.69;4917593;29;20052;-68
2022/01/28 11:05:39;;;;;;;;;;;;;;;21.72;17.32;101764.78;4922558;29;20142;-71
2022/01/28 11:08:11;;;;;;;3.75;2.70;;;;;;;21.84;16.87;101761.31;4919006;29;20365;-69
2022/01/28 11:10:39;;;;;;;3.80;2.67;;;;;;;21.27;16.25;101712.84;4914109;29;20178;-69
2022/01/28 11:13:07;;;;;;;3.33;2.28;;;;;;;21.42;16.46;101757.09;4918970;29;20533;-70
2022/01/28 11:15:35;;;;;;;4.03;2.05;;;;;;;21.47;16.50;101774.00;4918722;29;20139;-69
2022/01/28 11:18:05;;;;;;;3.78;1.90;;;;;;;21.71;16.71;101770.81;4914610;29;20052;-69
2022/01/28 11:20:45;;;;;;;3.03;2.22;;;;;;;21.23;16.45;101745.88;4916021;29;20146;-70
2022/01/28 11:23:28;;;;;;;12.00;2.88;;;;;;;20.97;16.70;101752.25;4918190;29;20065;-68
2022/01/28 11:26:14;;;;;;;5.20;3.40;;;;;;;21.35;16.99;101768.91;4918722;29;20501;-68
2022/01/28 11:28:45;;;;;;;5.85;3.20;;;;;;;21.70;16.69;101763.44;4922569;29;20134;-66
2022/01/28 11:31:13;;;;;;;3.90;2.78;;;;;;;22.35;16.80;101759.84;4918022;29;20134;-71
2022/01/28 11:33:48;;;;;;;5.13;3.65;;;;;;;23.00;16.36;101749.53;4921489;29;20712;-67
2022/01/28 11:36:31;;;;;;;9.25;3.28;;;;;;;23.81;16.19;101762.16;4917622;29;20140;-67
2022/01/28 11:39:08;;;;;;;5.50;3.20;;;;;;;23.98;16.19;101761.22;4918581;29;20188;-67
2022/01/28 11:41:37;;;;;;;6.47;3.33;;;;;;;23.89;15.80;101738.44;4934713;29;20099;-71
2022/01/28 11:44:04;;;;;;;3.85;2.88;;;;;;;23.62;15.85;101694.06;4925227;29;20058;-68
2022/01/28 11:46:37;;;;;;;5.72;3.53;;;;;;;23.59;15.00;101752.63;4919945;29;20056;-68
2022/01/28 11:49:07;;;;;;;4.95;3.35;;;;;;;23.45;15.44;101742.59;4948379;28;20158;-67
2022/01/28 11:51:36;;;;;;;5.05;3.55;;;;;;;23.79;15.58;101759.63;4919281;29;20059;-69
2022/01/28 11:54:05;;;;;;;8.43;3.38;;;;;;;23.62;15.00;101749.09;4920302;29;20138;-67
2022/01/28 11:56:36;;;;;;;;;;;;;;;23.25;15.42;101738.44;4919646;29;20492;-66
2022/01/28 11:59:07;;;;;;;5.68;4.57;;;;;;;23.42;15.31;101727.84;4917689;29;20009;-67
2022/01/28 12:01:40;;;;;;;8.60;4.20;;;;;;;24.02;15.35;101722.25;4915197;29;20178;-68
2022/01/28 12:04:26;;;;;;;8.77;4.53;;;;;;;24.50;14.78;101703.84;4930919;29;20051;-68
2022/01/28 12:06:59;;;;;;;5.45;4.07;;;;;;;25.48;14.89;101710.84;4916897;29;20443;-68
2022/01/28 12:09:28;;;;;;;7.78;3.97;;;;;;;26.63;14.04;101706.06;4916834;29;20102;-68
2022/01/28 12:11:58;;;;;;;9.23;4.43;;;;;;;27.32;13.82;101693.38;4930358;29;20579;-67
2022/01/28 12:14:49;;;;;;;7.70;4.90;;;;;;;27.85;13.52;101696.84;4920594;29;20297;-70
2022/01/28 12:17:32;;;;;;;3.88;2.90;;;;;;;27.88;13.50;101696.09;4922165;29;20059;-69
2022/01/28 12:20:35;;;;;;;5.20;3.40;;;;;;;27.32;12.99;101695.44;4918374;29;20182;-69
2022/01/28 12:23:04;;;;;;;6.47;4.43;;;;;;;27.14;13.05;101707.19;4926845;29;20052;-66
2022/01/28 12:25:40;;;;;;;9.05;4.63;;;;;;;27.11;13.14;101695.59;4918332;29;20083;-67
2022/01/28 12:28:18;;;;;;;6.68;4.38;;;;;;;27.42;13.19;101677.66;4936940;28;20510;-67
2022/01/28 12:31:01;;;;;;;5.45;3.30;;;;;;;27.94;13.08;101676.56;4934061;29;20143;-69
2022/01/28 12:33:33;;;;;;;7.35;3.80;;;;;;;28.98;12.77;101684.66;4937859;28;20511;-68
2022/01/28 12:36:10;;;;;;;6.05;4.60;;;;;;;29.36;12.47;101666.53;4920375;29;20066;-69
2022/01/28 12:38:43;;;;;;;8.05;4.50;;;;;;;29.67;12.04;101676.16;4920624;29;20066;-67
2022/01/28 12:41:16;;;;;;;4.10;3.70;;;;;;;29.16;12.33;101659.16;4918043;29;20110;-67
2022/01/28 12:43:43;;;;;;;5.82;3.38;;;;;;;28.99;12.00;101672.84;4920034;29;20060;-67
2022/01/28 12:46:12;;;;;;;4.78;3.15;;;;;;;28.63;11.75;101670.38;4920339;29;20645;-68
2022/01/28 12:48:47;;;;;;;5.10;4.10;;;;;;;28.02;11.82;101675.53;4923528;29;20048;-72
2022/01/28 12:51:16;;;;;;;5.80;4.05;;;;;;;28.09;12.16;101652.72;4920847;29;20044;-69
2022/01/28 12:53:47;;;;;;;5.88;4.13;;;;;;;28.53;11.86;101666.06;4921187;29;20070;-68
2022/01/28 12:56:17;;;;;;;7.13;4.15;;;;;;;28.76;11.95;101661.22;4920621;29;20143;-68
2022/01/28 12:58:50;;;;;;;4.35;3.83;;;;;;;29.68;11.94;101644.13;4917853;29;20170;-68
2022/01/28 13:01:18;;;;;;;4.78;3.83;;;;;;;29.10;11.14;101626.19;4916790;29;20571;-68
2022/01/28 13:04:01;;;;;;;3.75;2.72;;;;;;;28.66;11.27;101643.75;4921913;29;20063;-68
2022/01/28 13:09:10;;;;;;;3.97;3.30;;;;;;;28.45;11.63;101638.41;4920605;29;20067;-69
2022/01/28 13:11:46;;;;;;;3.45;3.15;;;;;;;28.40;11.24;101628.00;4919409;29;21362;-69